createdAt,value
2024-01-26T00:00:51.344Z,2.77
2024-01-26T00:03:18.772Z,2.67
2024-01-26T00:05:45.939Z,2.70
2024-01-26T00:08:16.208Z,2.93
2024-01-26T00:10:43.265Z,2.78
2024-01-26T00:13:11.609Z,2.57
2024-01-26T00:15:38.787Z,2.55
2024-01-26T00:18:05.893Z,2.49
2024-01-26T00:20:33.034Z,2.43
2024-01-26T00:23:00.014Z,2.47
2024-01-26T00:25:27.010Z,2.44
2024-01-26T00:27:54.109Z,2.51
2024-01-26T00:30:21.167Z,2.37
2024-01-26T00:32:48.130Z,2.55
2024-01-26T00:35:16.153Z,2.50
2024-01-26T00:37:43.161Z,2.56
2024-01-26T00:40:10.556Z,2.57
2024-01-26T00:42:37.610Z,2.51
2024-01-26T00:45:05.057Z,2.49
2024-01-26T00:47:31.978Z,2.52
2024-01-26T00:49:59.074Z,2.50
2024-01-26T00:52:26.143Z,2.51
2024-01-26T00:54:53.068Z,2.65
2024-01-26T00:57:20.081Z,2.75
2024-01-26T00:59:47.220Z,2.76
2024-01-26T01:02:14.198Z,2.65
2024-01-26T01:04:41.605Z,2.70
2024-01-26T01:07:08.570Z,2.77
2024-01-26T01:09:36.107Z,2.67
2024-01-26T01:12:04.058Z,2.64
2024-01-26T01:14:31.557Z,2.71
2024-01-26T01:16:58.477Z,2.79
2024-01-26T01:19:25.616Z,2.97
2024-01-26T01:21:52.993Z,2.74
2024-01-26T01:24:19.978Z,2.81
2024-01-26T01:26:47.166Z,2.86
2024-01-26T01:29:14.121Z,2.87
2024-01-26T01:31:41.129Z,2.90
2024-01-26T01:34:08.260Z,2.81
2024-01-26T01:36:35.348Z,2.82
2024-01-26T01:39:02.634Z,2.82
2024-01-26T01:41:29.793Z,2.81
2024-01-26T01:43:57.518Z,2.83
2024-01-26T01:46:24.602Z,2.89
2024-01-26T01:48:51.995Z,2.89
2024-01-26T01:51:19.278Z,2.99
2024-01-26T01:53:48.104Z,2.93
2024-01-26T01:56:16.379Z,3.00
2024-01-26T01:58:43.398Z,2.89
2024-01-26T02:01:10.494Z,2.94
2024-01-26T02:03:37.660Z,2.96
2024-01-26T02:06:05.031Z,2.93
2024-01-26T02:08:32.059Z,3.04
2024-01-26T02:10:59.128Z,3.12
2024-01-26T02:13:26.057Z,3.11
2024-01-26T02:15:53.036Z,2.98
2024-01-26T02:18:20.180Z,2.85
2024-01-26T02:20:52.389Z,2.77
2024-01-26T02:23:26.095Z,2.78
2024-01-26T02:25:53.607Z,2.75
2024-01-26T02:28:20.691Z,2.75
2024-01-26T02:30:47.712Z,2.85
2024-01-26T02:33:14.911Z,2.86
2024-01-26T02:35:42.314Z,2.89
2024-01-26T02:38:09.268Z,3.00
2024-01-26T02:40:36.524Z,3.02
2024-01-26T02:43:03.649Z,3.04
2024-01-26T02:45:30.534Z,3.04
2024-01-26T02:47:58.232Z,2.92
2024-01-26T02:50:25.371Z,2.93
2024-01-26T02:52:52.411Z,3.08
2024-01-26T02:55:19.333Z,2.99
2024-01-26T02:57:46.321Z,2.96
2024-01-26T03:00:13.965Z,3.02
2024-01-26T03:02:41.061Z,3.09
2024-01-26T03:05:08.433Z,2.90
2024-01-26T03:07:35.346Z,2.86
2024-01-26T03:10:02.342Z,2.89
2024-01-26T03:12:29.603Z,2.95
2024-01-26T03:14:56.952Z,2.94
2024-01-26T03:17:23.932Z,2.96
2024-01-26T03:19:50.849Z,2.89
2024-01-26T03:22:17.949Z,2.96
2024-01-26T03:24:45.945Z,2.88
2024-01-26T03:27:13.035Z,2.92
2024-01-26T03:29:40.120Z,2.75
2024-01-26T03:32:07.467Z,2.77
2024-01-26T03:34:34.653Z,2.86
2024-01-26T03:37:01.598Z,2.96
2024-01-26T03:39:28.699Z,3.04
2024-01-26T03:41:55.787Z,3.09
2024-01-26T03:44:23.245Z,3.11
2024-01-26T03:46:50.210Z,2.91
2024-01-26T03:49:17.269Z,2.99
2024-01-26T03:51:44.314Z,2.99
2024-01-26T03:54:11.543Z,3.14
2024-01-26T03:56:38.795Z,3.19
2024-01-26T03:59:05.789Z,3.32
2024-01-26T04:01:32.737Z,3.37
2024-01-26T04:03:59.773Z,3.36
2024-01-26T04:06:26.796Z,3.31
2024-01-26T04:08:56.237Z,3.35
2024-01-26T04:11:23.497Z,3.21
2024-01-26T04:13:50.476Z,3.22
2024-01-26T04:16:17.537Z,3.20
2024-01-26T04:18:45.449Z,3.39
2024-01-26T04:21:12.572Z,3.11
2024-01-26T04:23:39.614Z,3.12
2024-01-26T04:26:07.334Z,3.15
2024-01-26T04:28:34.340Z,3.17
2024-01-26T04:31:01.561Z,3.21
2024-01-26T04:33:28.666Z,3.09
2024-01-26T04:35:56.160Z,3.14
2024-01-26T04:38:23.225Z,3.18
2024-01-26T04:40:50.177Z,3.24
2024-01-26T04:43:17.114Z,3.33
2024-01-26T04:45:43.985Z,3.40
2024-01-26T04:48:11.119Z,3.47
2024-01-26T04:50:38.098Z,3.79
2024-01-26T04:53:05.010Z,3.34
2024-01-26T04:55:31.907Z,3.30
2024-01-26T04:57:58.834Z,3.19
2024-01-26T05:00:26.256Z,3.27
2024-01-26T05:02:53.351Z,3.26
2024-01-26T05:05:20.332Z,3.45
2024-01-26T05:07:47.281Z,3.40
2024-01-26T05:10:14.375Z,3.39
2024-01-26T05:12:41.504Z,3.34
2024-01-26T05:15:12.858Z,3.31
2024-01-26T05:17:40.483Z,3.25
2024-01-26T05:20:08.354Z,3.52
2024-01-26T05:22:35.762Z,3.36
2024-01-26T05:25:02.910Z,3.26
2024-01-26T05:27:30.430Z,3.24
2024-01-26T05:29:57.498Z,3.17
2024-01-26T05:32:24.684Z,3.18
2024-01-26T05:34:51.792Z,3.24
2024-01-26T05:37:18.845Z,3.11
2024-01-26T05:39:45.918Z,3.49
2024-01-26T05:42:13.145Z,3.29
2024-01-26T05:44:40.153Z,3.20
2024-01-26T05:47:07.358Z,3.12
2024-01-26T05:49:35.197Z,3.19
2024-01-26T05:52:02.571Z,3.13
2024-01-26T05:54:29.575Z,3.13
2024-01-26T05:56:56.707Z,3.18
2024-01-26T05:59:23.771Z,3.17
2024-01-26T06:01:50.753Z,3.16
2024-01-26T06:04:17.864Z,3.18
2024-01-26T06:06:45.131Z,3.68
2024-01-26T06:09:12.237Z,3.26
2024-01-26T06:11:43.517Z,3.24
2024-01-26T06:14:10.545Z,3.26
2024-01-26T06:16:37.546Z,3.22
2024-01-26T06:19:05.509Z,3.08
2024-01-26T06:21:32.912Z,3.06
2024-01-26T06:24:00.880Z,3.05
2024-01-26T06:26:28.081Z,3.09
2024-01-26T06:28:55.112Z,3.13
2024-01-26T06:31:28.507Z,3.28
2024-01-26T06:33:56.010Z,3.22
2024-01-26T06:36:23.108Z,3.15
2024-01-26T06:38:50.371Z,3.09
2024-01-26T06:41:17.498Z,3.08
2024-01-26T06:43:52.007Z,3.12
2024-01-26T06:46:24.069Z,3.17
2024-01-26T06:48:52.112Z,3.22
2024-01-26T06:51:19.874Z,3.26
2024-01-26T06:53:47.006Z,3.34
2024-01-26T06:56:14.145Z,3.46
2024-01-26T06:58:41.221Z,3.50
2024-01-26T07:01:08.395Z,3.40
2024-01-26T07:03:35.557Z,3.43
2024-01-26T07:06:03.332Z,3.44
2024-01-26T07:08:30.562Z,3.52
2024-01-26T07:10:57.551Z,3.60
2024-01-26T07:13:24.987Z,3.67
2024-01-26T07:15:51.967Z,3.78
2024-01-26T07:18:19.091Z,3.87
2024-01-26T07:20:46.348Z,3.95
2024-01-26T07:23:13.377Z,4.04
2024-01-26T07:25:40.339Z,4.08
2024-01-26T07:28:08.716Z,4.08
2024-01-26T07:30:35.744Z,4.15
2024-01-26T07:33:02.893Z,3.91
2024-01-26T07:35:30.002Z,3.70
2024-01-26T07:37:56.997Z,3.77
2024-01-26T07:40:23.921Z,3.74
2024-01-26T07:42:50.903Z,3.82
2024-01-26T07:45:17.867Z,3.88
2024-01-26T07:47:44.949Z,4.10
2024-01-26T07:50:12.109Z,5.65
2024-01-26T07:52:40.168Z,7.85
2024-01-26T07:55:10.208Z,8.52
2024-01-26T07:57:39.188Z,9.22
2024-01-26T08:00:10.185Z,8.41
2024-01-26T08:02:37.470Z,7.18
2024-01-26T08:05:05.657Z,6.74
2024-01-26T08:07:33.641Z,6.70
2024-01-26T08:10:01.547Z,6.83
2024-01-26T08:12:38.586Z,6.86
2024-01-26T08:15:11.993Z,6.49
2024-01-26T08:17:40.056Z,6.29
2024-01-26T08:20:09.237Z,6.04
2024-01-26T08:22:41.954Z,5.87
2024-01-26T08:25:09.780Z,6.05
2024-01-26T08:27:37.615Z,5.96
2024-01-26T08:30:05.988Z,6.31
2024-01-26T08:32:33.186Z,6.11
2024-01-26T08:35:00.472Z,5.87
2024-01-26T08:37:27.682Z,5.79
2024-01-26T08:39:55.651Z,5.70
2024-01-26T08:42:23.507Z,5.76
2024-01-26T08:44:50.576Z,5.65
2024-01-26T08:47:17.610Z,5.64
2024-01-26T08:49:44.866Z,5.45
2024-01-26T08:52:12.125Z,5.38
2024-01-26T08:54:39.180Z,5.61
2024-01-26T08:57:06.759Z,5.77
2024-01-26T08:59:34.028Z,5.87
2024-01-26T09:02:02.428Z,5.82
2024-01-26T09:04:29.332Z,5.99
2024-01-26T09:07:00.533Z,5.88
2024-01-26T09:09:35.115Z,5.78
2024-01-26T09:12:02.166Z,5.95
2024-01-26T09:14:30.101Z,6.10
2024-01-26T09:16:57.235Z,6.09
2024-01-26T09:19:24.637Z,6.24
2024-01-26T09:21:52.577Z,6.24
2024-01-26T09:24:19.940Z,6.23
2024-01-26T09:26:47.249Z,6.21
2024-01-26T09:29:14.345Z,6.27
2024-01-26T09:31:41.501Z,6.42
2024-01-26T09:34:09.561Z,6.56
2024-01-26T09:36:36.751Z,6.66
2024-01-26T09:39:04.207Z,6.77
2024-01-26T09:41:31.488Z,6.79
2024-01-26T09:43:58.441Z,6.65
2024-01-26T09:46:25.633Z,6.37
2024-01-26T09:48:56.937Z,6.37
2024-01-26T09:51:25.454Z,6.48
2024-01-26T09:53:55.986Z,6.53
2024-01-26T09:56:23.200Z,6.56
2024-01-26T09:58:50.420Z,6.60
2024-01-26T10:01:24.810Z,6.53
2024-01-26T10:03:54.226Z,6.53
2024-01-26T10:06:22.220Z,6.65
2024-01-26T10:08:49.493Z,6.66
2024-01-26T10:11:16.650Z,6.66
2024-01-26T10:13:43.764Z,6.71
2024-01-26T10:16:14.494Z,6.83
2024-01-26T10:18:44.875Z,6.95
2024-01-26T10:21:13.391Z,6.66
2024-01-26T10:23:40.980Z,6.57
2024-01-26T10:26:09.091Z,6.66
2024-01-26T10:28:36.284Z,6.63
2024-01-26T10:31:03.406Z,6.68
2024-01-26T10:33:32.701Z,6.67
2024-01-26T10:36:01.846Z,6.73
2024-01-26T10:38:32.907Z,6.69
2024-01-26T10:41:04.437Z,6.61
2024-01-26T10:43:33.416Z,6.63
2024-01-26T10:46:03.567Z,6.69
2024-01-26T10:48:31.422Z,6.68
2024-01-26T10:50:59.833Z,6.72
2024-01-26T10:53:28.643Z,6.73
2024-01-26T10:55:56.244Z,6.51
2024-01-26T10:58:23.631Z,6.54
2024-01-26T11:00:50.910Z,6.60
2024-01-26T11:03:18.116Z,6.69
2024-01-26T11:05:52.034Z,6.74
2024-01-26T11:08:26.141Z,6.83
2024-01-26T11:10:55.524Z,6.74
2024-01-26T11:13:24.542Z,6.70
2024-01-26T11:15:52.354Z,6.71
2024-01-26T11:18:26.688Z,6.78
2024-01-26T11:20:54.225Z,6.64
2024-01-26T11:23:22.612Z,6.47
2024-01-26T11:25:54.516Z,6.43
2024-01-26T11:28:26.736Z,6.49
2024-01-26T11:31:01.222Z,6.60
2024-01-26T11:33:37.252Z,6.61
2024-01-26T11:36:21.288Z,6.76
2024-01-26T11:38:55.153Z,6.90
2024-01-26T11:41:23.318Z,6.89
2024-01-26T11:43:53.604Z,6.87
2024-01-26T11:46:21.286Z,6.95
2024-01-26T11:48:48.550Z,7.16
2024-01-26T11:51:16.344Z,7.17
2024-01-26T11:53:43.498Z,7.14
2024-01-26T11:56:10.826Z,7.16
2024-01-26T11:58:39.582Z,7.24
2024-01-26T12:01:07.908Z,7.29
2024-01-26T12:03:36.611Z,7.41
2024-01-26T12:06:04.925Z,7.44
2024-01-26T12:08:32.728Z,7.52
2024-01-26T12:11:00.772Z,7.59
2024-01-26T12:13:27.979Z,7.50
2024-01-26T12:15:55.154Z,7.41
2024-01-26T12:18:24.420Z,7.71
2024-01-26T12:20:52.125Z,7.55
2024-01-26T12:23:20.088Z,7.78
2024-01-26T12:25:51.165Z,7.91
2024-01-26T12:28:18.616Z,8.18
2024-01-26T12:30:48.695Z,8.42
2024-01-26T12:33:16.393Z,8.51
2024-01-26T12:35:43.841Z,8.52
2024-01-26T12:38:11.404Z,8.57
2024-01-26T12:40:38.510Z,8.52
2024-01-26T12:43:06.316Z,8.26
2024-01-26T12:45:33.766Z,8.24
2024-01-26T12:48:01.214Z,8.23
2024-01-26T12:50:28.711Z,8.10
2024-01-26T12:52:55.902Z,8.05
2024-01-26T12:55:25.002Z,8.07
2024-01-26T12:57:53.662Z,7.79
2024-01-26T13:00:21.608Z,7.72
2024-01-26T13:02:48.989Z,8.04
2024-01-26T13:05:16.204Z,8.17
2024-01-26T13:07:43.264Z,8.10
2024-01-26T13:10:10.821Z,7.95
2024-01-26T13:12:37.848Z,7.78
2024-01-26T13:15:05.527Z,7.93
2024-01-26T13:17:32.648Z,8.08
2024-01-26T13:20:05.516Z,8.10
2024-01-26T13:22:39.862Z,7.90
2024-01-26T13:25:07.223Z,7.94
2024-01-26T13:27:34.242Z,7.75
2024-01-26T13:30:01.691Z,7.70
2024-01-26T13:32:29.046Z,7.77
2024-01-26T13:34:58.741Z,8.22
2024-01-26T13:37:26.965Z,8.35
2024-01-26T13:39:53.995Z,8.38
2024-01-26T13:42:22.960Z,8.48
2024-01-26T13:44:50.540Z,8.45
2024-01-26T13:47:17.718Z,8.49
2024-01-26T13:49:46.565Z,8.31
2024-01-26T13:52:14.108Z,8.47
2024-01-26T13:54:41.186Z,8.53
2024-01-26T13:57:08.319Z,8.52
2024-01-26T13:59:36.270Z,8.62
2024-01-26T14:02:03.564Z,8.86
2024-01-26T14:04:30.748Z,8.57
2024-01-26T14:06:58.204Z,8.67
2024-01-26T14:09:25.463Z,9.05
2024-01-26T14:11:52.598Z,9.17
2024-01-26T14:14:23.885Z,9.23
2024-01-26T14:16:51.346Z,9.82
2024-01-26T14:19:18.905Z,9.89
2024-01-26T14:21:45.960Z,10.01
2024-01-26T14:24:13.036Z,10.03
2024-01-26T14:26:40.103Z,10.07
2024-01-26T14:29:11.817Z,10.02
2024-01-26T14:31:40.171Z,9.97
2024-01-26T14:34:07.544Z,9.98
2024-01-26T14:36:35.618Z,9.73
2024-01-26T14:39:05.437Z,9.96
2024-01-26T14:41:33.204Z,9.80
2024-01-26T14:44:00.883Z,9.79
2024-01-26T14:46:30.876Z,9.88
2024-01-26T14:48:58.361Z,9.64
2024-01-26T14:51:25.552Z,9.49
2024-01-26T14:53:52.608Z,9.63
2024-01-26T14:56:21.198Z,9.52
2024-01-26T14:58:48.216Z,9.17
2024-01-26T15:01:15.306Z,9.00
2024-01-26T15:03:42.622Z,9.08
2024-01-26T15:06:09.979Z,9.14
2024-01-26T15:08:37.102Z,9.02
2024-01-26T15:11:04.275Z,9.09
2024-01-26T15:13:31.279Z,9.00
2024-01-26T15:15:58.327Z,8.62
2024-01-26T15:18:25.637Z,8.47
2024-01-26T15:20:52.938Z,8.75
2024-01-26T15:23:20.867Z,8.74
2024-01-26T15:25:48.750Z,8.45
2024-01-26T15:28:20.759Z,8.41
2024-01-26T15:30:47.798Z,8.58
2024-01-26T15:33:15.203Z,8.70
2024-01-26T15:35:42.438Z,8.54
2024-01-26T15:38:10.197Z,8.57
2024-01-26T15:40:37.552Z,8.59
2024-01-26T15:43:05.353Z,8.61
2024-01-26T15:45:32.376Z,8.24
2024-01-26T15:48:00.503Z,7.89
2024-01-26T15:50:27.759Z,7.94
2024-01-26T15:52:54.745Z,8.20
2024-01-26T15:55:21.764Z,8.02
2024-01-26T15:57:48.754Z,8.19
2024-01-26T16:00:16.451Z,8.00
2024-01-26T16:02:43.748Z,8.03
2024-01-26T16:05:12.248Z,7.85
2024-01-26T16:07:39.550Z,7.82
2024-01-26T16:10:07.652Z,7.66
2024-01-26T16:12:37.130Z,7.80
2024-01-26T16:15:07.646Z,7.89
2024-01-26T16:17:35.821Z,7.77
2024-01-26T16:20:03.578Z,7.93
2024-01-26T16:22:30.639Z,7.93
2024-01-26T16:24:57.613Z,7.83
2024-01-26T16:27:24.690Z,7.83
2024-01-26T16:29:51.767Z,7.80
2024-01-26T16:32:19.070Z,7.61
2024-01-26T16:34:46.175Z,7.68
2024-01-26T16:37:13.266Z,7.50
2024-01-26T16:39:40.447Z,7.54
2024-01-26T16:42:07.761Z,7.44
2024-01-26T16:44:34.870Z,7.49
2024-01-26T16:47:02.117Z,7.54
2024-01-26T16:49:29.287Z,7.45
2024-01-26T16:52:01.939Z,7.40
2024-01-26T16:54:32.433Z,7.39
2024-01-26T16:56:59.908Z,7.41
2024-01-26T16:59:27.253Z,7.67
2024-01-26T17:01:54.393Z,7.56
2024-01-26T17:04:21.696Z,7.62
2024-01-26T17:06:50.217Z,7.45
2024-01-26T17:09:17.329Z,7.29
2024-01-26T17:11:44.400Z,7.03
2024-01-26T17:14:11.457Z,6.97
2024-01-26T17:16:40.651Z,7.11
2024-01-26T17:19:07.843Z,7.00
2024-01-26T17:21:36.083Z,7.05
2024-01-26T17:24:03.246Z,6.91
2024-01-26T17:26:30.333Z,6.86
2024-01-26T17:28:57.766Z,6.95
2024-01-26T17:31:24.931Z,7.07
2024-01-26T17:33:54.430Z,7.34
2024-01-26T17:36:22.002Z,7.32
2024-01-26T17:38:49.123Z,7.37
2024-01-26T17:41:16.268Z,7.50
2024-01-26T17:43:43.652Z,7.36
2024-01-26T17:46:12.048Z,7.41
2024-01-26T17:48:39.596Z,7.33
2024-01-26T17:51:06.715Z,7.30
2024-01-26T17:53:33.728Z,7.39
2024-01-26T17:56:02.125Z,7.21
2024-01-26T17:58:29.608Z,7.00
2024-01-26T18:00:56.639Z,7.07
2024-01-26T18:03:23.810Z,7.25
2024-01-26T18:05:51.434Z,6.99
2024-01-26T18:08:18.540Z,6.81
2024-01-26T18:10:45.866Z,6.56
2024-01-26T18:13:12.914Z,6.49
2024-01-26T18:15:40.323Z,6.55
2024-01-26T18:18:07.877Z,6.62
2024-01-26T18:20:35.724Z,6.62
2024-01-26T18:23:02.659Z,6.52
2024-01-26T18:25:29.818Z,6.82
2024-01-26T18:27:56.845Z,6.82
2024-01-26T18:30:24.145Z,6.74
2024-01-26T18:32:51.754Z,6.66
2024-01-26T18:35:18.926Z,6.92
2024-01-26T18:37:46.024Z,7.18
2024-01-26T18:40:13.914Z,7.21
2024-01-26T18:42:41.202Z,7.14
2024-01-26T18:45:09.346Z,6.98
2024-01-26T18:47:36.942Z,7.05
2024-01-26T18:50:06.563Z,7.15
2024-01-26T18:52:33.917Z,7.22
2024-01-26T18:55:01.597Z,6.99
2024-01-26T18:57:29.646Z,6.75
2024-01-26T20:29:07.547Z,5.77
2024-01-26T20:31:37.163Z,5.84
2024-01-26T20:34:04.596Z,5.56
2024-01-26T20:36:31.745Z,5.73
2024-01-26T20:39:00.177Z,5.84
2024-01-26T20:41:29.121Z,6.23
2024-01-26T20:43:56.128Z,5.99
2024-01-26T20:46:23.134Z,5.72
2024-01-26T20:48:50.570Z,5.74
2024-01-26T20:51:18.022Z,5.78
2024-01-26T20:53:47.448Z,5.78
2024-01-26T20:56:14.965Z,5.58
2024-01-26T20:58:42.541Z,5.74
2024-01-26T21:01:10.246Z,5.78
2024-01-26T21:03:37.749Z,5.98
2024-01-26T21:06:05.559Z,5.79
2024-01-26T21:08:32.596Z,5.47
2024-01-26T21:10:59.478Z,5.47
2024-01-26T21:13:26.646Z,5.37
2024-01-26T21:15:54.001Z,5.56
2024-01-26T21:18:21.682Z,5.61
2024-01-26T21:20:49.029Z,5.50
2024-01-26T21:23:16.370Z,6.01
2024-01-26T21:25:43.688Z,6.25
2024-01-26T21:28:10.768Z,6.19
2024-01-26T21:30:38.394Z,6.46
2024-01-26T21:33:06.095Z,6.87
2024-01-26T21:35:34.454Z,6.92
2024-01-26T21:38:01.420Z,6.77
2024-01-26T21:40:28.454Z,6.67
2024-01-26T21:42:55.728Z,6.43
2024-01-26T21:45:22.740Z,6.58
2024-01-26T21:47:49.959Z,6.80
2024-01-26T21:50:19.914Z,6.40
2024-01-26T21:52:49.324Z,6.12
2024-01-26T21:55:17.216Z,5.88
2024-01-26T21:57:44.173Z,5.74
2024-01-26T22:00:11.745Z,5.54
2024-01-26T22:02:38.806Z,5.40
2024-01-26T22:05:05.867Z,5.78
2024-01-26T22:07:32.740Z,5.53
2024-01-26T22:09:59.821Z,5.40
2024-01-26T22:12:27.114Z,5.51
2024-01-26T22:14:54.270Z,5.19
2024-01-26T22:17:21.187Z,5.04
2024-01-26T22:19:48.586Z,4.91
2024-01-26T22:22:15.663Z,4.71
2024-01-26T22:24:44.188Z,4.49
2024-01-26T22:27:11.250Z,4.47
2024-01-26T22:29:38.286Z,4.49
2024-01-26T22:32:05.479Z,4.29
2024-01-26T22:34:32.397Z,4.17
2024-01-26T22:36:59.357Z,4.10
2024-01-26T22:39:26.357Z,4.20
2024-01-26T22:41:54.385Z,4.05
2024-01-26T22:44:21.396Z,4.16
2024-01-26T22:46:48.284Z,3.99
2024-01-26T22:49:15.524Z,3.90
2024-01-26T22:51:42.573Z,3.81
2024-01-26T22:54:09.618Z,3.91
2024-01-26T22:56:37.467Z,4.06
2024-01-26T22:59:05.496Z,3.97
2024-01-26T23:01:32.578Z,4.00
2024-01-26T23:03:59.623Z,3.73
2024-01-26T23:06:26.909Z,3.64
2024-01-26T23:08:54.440Z,3.64
2024-01-26T23:11:22.174Z,3.60
2024-01-26T23:13:49.370Z,3.77
2024-01-26T23:16:18.525Z,3.84
2024-01-26T23:18:45.831Z,3.88
2024-01-26T23:21:13.839Z,3.91
2024-01-26T23:23:40.776Z,4.04
2024-01-26T23:26:07.780Z,4.00
2024-01-26T23:28:36.184Z,3.92
2024-01-26T23:31:03.139Z,3.95
2024-01-26T23:33:30.930Z,3.96
2024-01-26T23:35:57.915Z,3.84
2024-01-26T23:38:24.916Z,3.75
2024-01-26T23:40:52.067Z,3.42
2024-01-26T23:43:20.412Z,3.24
2024-01-26T23:45:47.379Z,3.49
2024-01-26T23:48:14.708Z,3.89
2024-01-26T23:50:42.265Z,3.45
2024-01-26T23:53:09.302Z,3.10
2024-01-26T23:55:36.318Z,3.08
2024-01-26T23:58:03.243Z,3.13
